Kennedy Shores, Texas
Current Conditions -  °F | °C
As of 11:00 AM on Thursday 30 Oct 2014 (Local Time) from KBRO Reporting Station
Scattered Clouds Scattered Clouds  
Wind Chill: 83°   Ceiling: Unl
Heat Index: 86°   Visibility: 10mi
Dew Point: 69°   Wind: 0mph
Humidity: 63%   Direction: NA
Pressure: 30.1"   Gusts: NA
Location:  26.0002°N, 97.5729°W
Report Text: KBRO 301600Z 00000KT 10SM SCT029 28/21 A3010 RMK AO2 T02830206
Loading
Personal Weather Stations






























Interactive Weather Map
Tropical Storm Tracking
New forecast layout! Learn more

10-Day Weather Forecast

Advertisements
Track Severe Weather on mobile